createdAt,value
2018-11-22T00:00:39.044Z,-81
2018-11-22T00:01:39.090Z,-80
2018-11-22T00:02:39.251Z,-81
2018-11-22T00:03:39.299Z,-81
2018-11-22T00:04:39.105Z,-81
2018-11-22T00:05:39.212Z,-80
2018-11-22T00:06:39.268Z,-80
2018-11-22T00:07:39.024Z,-80
2018-11-22T00:08:40.465Z,-81
2018-11-22T00:09:39.102Z,-80
2018-11-22T00:10:39.042Z,-80
2018-11-22T00:11:39.058Z,-80
2018-11-22T00:12:39.074Z,-80
2018-11-22T00:13:39.468Z,-81
2018-11-22T00:14:39.014Z,-80
2018-11-22T00:15:39.047Z,-80
2018-11-22T00:16:39.042Z,-80
2018-11-22T00:17:39.056Z,-80
2018-11-22T00:18:39.251Z,-80
2018-11-22T00:19:39.137Z,-80
2018-11-22T00:20:39.076Z,-80
2018-11-22T00:21:39.018Z,-80
2018-11-22T00:22:39.032Z,-80
2018-11-22T00:23:39.024Z,-80
2018-11-22T00:24:39.351Z,-80
2018-11-22T00:25:39.094Z,-80
2018-11-22T00:26:39.022Z,-80
2018-11-22T00:27:39.018Z,-80
2018-11-22T00:28:38.973Z,-79
2018-11-22T00:29:39.061Z,-80
2018-11-22T00:30:39.084Z,-80
2018-11-22T00:31:39.179Z,-80
2018-11-22T00:32:39.027Z,-80
2018-11-22T00:33:39.193Z,-81
2018-11-22T00:34:39.044Z,-80
2018-11-22T00:35:39.283Z,-80
2018-11-22T00:36:39.146Z,-81
2018-11-22T00:37:39.048Z,-81
2018-11-22T00:38:39.046Z,-80
2018-11-22T00:39:39.309Z,-81
2018-11-22T00:40:39.229Z,-80
2018-11-22T00:41:39.267Z,-80
2018-11-22T00:42:39.223Z,-81
2018-11-22T00:43:39.197Z,-81
2018-11-22T00:44:38.992Z,-81
2018-11-22T00:45:39.451Z,-81
2018-11-22T00:46:39.113Z,-81
2018-11-22T00:47:38.991Z,-80
2018-11-22T00:48:39.252Z,-81
2018-11-22T00:49:38.997Z,-80
2018-11-22T00:50:39.460Z,-80
2018-11-22T00:51:39.759Z,-80
2018-11-22T00:52:39.329Z,-80
2018-11-22T00:53:39.216Z,-80
2018-11-22T00:54:39.033Z,-79
2018-11-22T00:55:39.196Z,-80
2018-11-22T00:56:38.975Z,-80
2018-11-22T00:57:39.316Z,-81
2018-11-22T00:58:39.133Z,-80
2018-11-22T00:59:39.035Z,-80
2018-11-22T01:00:39.245Z,-80
2018-11-22T01:01:39.083Z,-80
2018-11-22T01:02:38.963Z,-80
2018-11-22T01:03:39.052Z,-80
2018-11-22T01:04:39.074Z,-80
2018-11-22T01:05:39.048Z,-80
2018-11-22T01:06:39.031Z,-80
2018-11-22T01:07:38.991Z,-80
2018-11-22T01:08:39.028Z,-80
2018-11-22T01:09:39.232Z,-80
2018-11-22T01:10:38.912Z,-79
2018-11-22T01:11:39.212Z,-80
2018-11-22T01:12:39.316Z,-80
2018-11-22T01:13:39.310Z,-80
2018-11-22T01:14:39.163Z,-79
2018-11-22T01:15:39.273Z,-80
2018-11-22T01:16:39.095Z,-80
2018-11-22T01:17:38.948Z,-80
2018-11-22T01:18:38.923Z,-80
2018-11-22T01:19:38.978Z,-80
2018-11-22T01:20:38.899Z,-80
2018-11-22T01:21:39.098Z,-80
2018-11-22T01:22:39.185Z,-80
2018-11-22T01:23:39.108Z,-79
2018-11-22T01:24:38.949Z,-80
2018-11-22T01:25:39.229Z,-80
2018-11-22T01:26:39.256Z,-81
2018-11-22T01:27:39.363Z,-80
2018-11-22T01:28:38.975Z,-80
2018-11-22T01:29:39.096Z,-81
2018-11-22T01:30:38.900Z,-80
2018-11-22T01:31:38.980Z,-80
2018-11-22T01:32:39.241Z,-80
2018-11-22T01:33:39.281Z,-80
2018-11-22T01:34:39.216Z,-80
2018-11-22T01:35:38.951Z,-79
2018-11-22T01:36:39.184Z,-80
2018-11-22T01:37:39.156Z,-81
2018-11-22T01:38:38.909Z,-78
2018-11-22T01:39:39.322Z,-76
2018-11-22T01:40:39.169Z,-80
2018-11-22T01:41:38.926Z,-80
2018-11-22T01:42:39.333Z,-80
2018-11-22T01:43:38.906Z,-80
2018-11-22T01:44:38.921Z,-80
2018-11-22T01:45:39.021Z,-80
2018-11-22T01:46:38.918Z,-79
2018-11-22T01:47:38.915Z,-79
2018-11-22T01:48:39.048Z,-80
2018-11-22T01:49:38.888Z,-80
2018-11-22T01:50:38.936Z,-80
2018-11-22T01:51:39.016Z,-80
2018-11-22T01:52:38.977Z,-78
2018-11-22T01:53:38.941Z,-80
2018-11-22T01:54:39.003Z,-79
2018-11-22T01:55:38.999Z,-78
2018-11-22T01:56:38.925Z,-79
2018-11-22T01:57:38.972Z,-79
2018-11-22T01:58:38.914Z,-80
2018-11-22T01:59:38.945Z,-78
2018-11-22T02:00:38.920Z,-78
2018-11-22T02:01:38.959Z,-79
2018-11-22T02:02:38.976Z,-80
2018-11-22T02:03:39.313Z,-80
2018-11-22T02:04:39.197Z,-78
2018-11-22T02:05:39.233Z,-80
2018-11-22T02:06:38.900Z,-80
2018-11-22T02:07:39.114Z,-80
2018-11-22T02:08:39.005Z,-80
2018-11-22T02:09:38.858Z,-80
2018-11-22T02:10:38.915Z,-80
2018-11-22T02:11:38.870Z,-80
2018-11-22T02:12:39.289Z,-80
2018-11-22T02:13:38.881Z,-80
2018-11-22T02:14:38.877Z,-80
2018-11-22T02:15:39.181Z,-80
2018-11-22T02:16:38.875Z,-80
2018-11-22T02:17:39.026Z,-80
2018-11-22T02:18:39.342Z,-80
2018-11-22T02:19:38.858Z,-80
2018-11-22T02:20:38.931Z,-80
2018-11-22T02:21:38.875Z,-80
2018-11-22T02:22:39.256Z,-80
2018-11-22T02:23:39.037Z,-80
2018-11-22T02:24:39.220Z,-80
2018-11-22T02:25:38.829Z,-80
2018-11-22T02:26:38.823Z,-80
2018-11-22T02:27:39.035Z,-80
2018-11-22T02:28:38.890Z,-80
2018-11-22T02:29:38.951Z,-80
2018-11-22T02:30:39.116Z,-76
2018-11-22T02:31:39.208Z,-80
2018-11-22T02:32:38.826Z,-80
2018-11-22T02:33:38.889Z,-80
2018-11-22T02:34:39.339Z,-80
2018-11-22T02:35:39.551Z,-81
2018-11-22T02:36:38.895Z,-80
2018-11-22T02:37:38.834Z,-81
2018-11-22T02:38:38.984Z,-80
2018-11-22T02:39:39.018Z,-80
2018-11-22T02:40:38.958Z,-80
2018-11-22T02:41:38.981Z,-78
2018-11-22T02:42:38.956Z,-77
2018-11-22T02:43:38.857Z,-79
2018-11-22T02:44:38.885Z,-80
2018-11-22T02:45:38.890Z,-80
2018-11-22T02:46:38.876Z,-80
2018-11-22T02:47:38.998Z,-80
2018-11-22T02:48:38.817Z,-80
2018-11-22T02:49:39.230Z,-80
2018-11-22T02:50:38.891Z,-80
2018-11-22T02:51:39.226Z,-80
2018-11-22T02:52:38.891Z,-80
2018-11-22T02:53:38.949Z,-80
2018-11-22T02:54:38.973Z,-80
2018-11-22T02:55:38.941Z,-80
2018-11-22T02:56:38.867Z,-80
2018-11-22T02:57:38.955Z,-80
2018-11-22T02:58:38.924Z,-80
2018-11-22T02:59:38.823Z,-79
2018-11-22T03:00:39.074Z,-79
2018-11-22T03:01:39.292Z,-80
2018-11-22T03:02:38.920Z,-80
2018-11-22T03:03:39.035Z,-79
2018-11-22T03:04:39.229Z,-80
2018-11-22T03:05:38.775Z,-80
2018-11-22T03:06:39.043Z,-80
2018-11-22T03:07:38.812Z,-80
2018-11-22T03:08:38.927Z,-80
2018-11-22T03:09:38.930Z,-79
2018-11-22T03:10:38.930Z,-79
2018-11-22T03:11:38.858Z,-80
2018-11-22T03:12:39.402Z,-80
2018-11-22T03:13:38.846Z,-79
2018-11-22T03:14:38.865Z,-78
2018-11-22T03:15:38.814Z,-79
2018-11-22T03:16:38.848Z,-78
2018-11-22T03:17:38.817Z,-78
2018-11-22T03:18:38.813Z,-79
2018-11-22T03:19:39.170Z,-79
2018-11-22T03:20:38.807Z,-78
2018-11-22T03:21:38.856Z,-78
2018-11-22T03:22:38.786Z,-78
2018-11-22T03:23:38.826Z,-79
2018-11-22T03:24:38.793Z,-79
2018-11-22T03:25:38.774Z,-78
2018-11-22T03:26:38.751Z,-78
2018-11-22T03:27:38.754Z,-78
2018-11-22T03:28:38.800Z,-78
2018-11-22T03:29:38.832Z,-79
2018-11-22T03:30:38.872Z,-78
2018-11-22T03:31:39.085Z,-78
2018-11-22T03:32:38.832Z,-78
2018-11-22T03:33:38.926Z,-78
2018-11-22T03:34:38.771Z,-78
2018-11-22T03:35:38.813Z,-78
2018-11-22T03:36:38.967Z,-78
2018-11-22T03:37:38.821Z,-78
2018-11-22T03:38:38.835Z,-78
2018-11-22T03:39:38.971Z,-76
2018-11-22T03:40:38.776Z,-77
2018-11-22T03:41:38.853Z,-77
2018-11-22T03:42:38.805Z,-78
2018-11-22T03:43:38.825Z,-78
2018-11-22T03:44:38.886Z,-77
2018-11-22T03:45:38.864Z,-78
2018-11-22T03:46:38.787Z,-78
2018-11-22T03:47:38.924Z,-79
2018-11-22T03:48:39.364Z,-75
2018-11-22T03:49:39.354Z,-76
2018-11-22T03:50:39.051Z,-77
2018-11-22T03:51:38.780Z,-78
2018-11-22T03:52:38.775Z,-78
2018-11-22T03:53:38.834Z,-79
2018-11-22T03:54:39.158Z,-76
2018-11-22T03:55:38.737Z,-79
2018-11-22T03:56:38.971Z,-78
2018-11-22T03:57:38.818Z,-78
2018-11-22T03:58:38.883Z,-77
2018-11-22T03:59:38.869Z,-78
2018-11-22T04:00:38.925Z,-77
2018-11-22T04:01:38.742Z,-78
2018-11-22T04:02:38.925Z,-77
2018-11-22T04:03:38.844Z,-79
2018-11-22T04:04:39.129Z,-75
2018-11-22T04:05:38.721Z,-78
2018-11-22T04:06:38.747Z,-78
2018-11-22T04:07:38.740Z,-78
2018-11-22T04:08:39.004Z,-76
2018-11-22T04:09:38.732Z,-78
2018-11-22T04:10:38.910Z,-75
2018-11-22T04:11:38.916Z,-76
2018-11-22T04:12:39.557Z,-75
2018-11-22T04:13:38.901Z,-76
2018-11-22T04:14:38.779Z,-79
2018-11-22T04:15:38.722Z,-78
2018-11-22T04:16:38.870Z,-77
2018-11-22T04:17:38.689Z,-79
2018-11-22T04:18:38.882Z,-78
2018-11-22T04:19:38.887Z,-78
2018-11-22T04:20:38.726Z,-79
2018-11-22T04:21:39.073Z,-77
2018-11-22T04:22:38.806Z,-78
2018-11-22T04:23:38.777Z,-78
2018-11-22T04:24:38.798Z,-77
2018-11-22T04:25:38.690Z,-78
2018-11-22T04:26:39.362Z,-75
2018-11-22T04:27:38.704Z,-78
2018-11-22T04:28:38.721Z,-79
2018-11-22T04:29:39.079Z,-78
2018-11-22T04:30:38.929Z,-77
2018-11-22T04:31:38.696Z,-77
2018-11-22T04:32:38.789Z,-77
2018-11-22T04:33:38.738Z,-77
2018-11-22T04:34:38.767Z,-78
2018-11-22T04:35:38.757Z,-78
2018-11-22T04:36:38.715Z,-78
2018-11-22T04:37:38.653Z,-76
2018-11-22T04:38:38.734Z,-77
2018-11-22T04:39:38.751Z,-76
2018-11-22T04:40:39.199Z,-76
2018-11-22T04:41:38.769Z,-76
2018-11-22T04:42:38.672Z,-78
2018-11-22T04:43:38.685Z,-77
2018-11-22T04:44:38.695Z,-78
2018-11-22T04:45:39.209Z,-78
2018-11-22T04:46:38.741Z,-78
2018-11-22T04:47:38.689Z,-78
2018-11-22T04:48:38.666Z,-79
2018-11-22T04:49:38.830Z,-78
2018-11-22T04:50:38.676Z,-78
2018-11-22T04:51:38.801Z,-79
2018-11-22T04:52:38.681Z,-78
2018-11-22T04:53:38.733Z,-78
2018-11-22T04:54:38.626Z,-78
2018-11-22T04:55:38.646Z,-78
2018-11-22T04:56:38.647Z,-78
2018-11-22T04:57:38.670Z,-77
2018-11-22T04:58:38.685Z,-78
2018-11-22T04:59:38.639Z,-78
2018-11-22T05:00:40.156Z,-75
2018-11-22T05:01:38.657Z,-78
2018-11-22T05:02:38.718Z,-77
2018-11-22T05:03:39.332Z,-75
2018-11-22T05:04:38.914Z,-75
2018-11-22T05:05:38.749Z,-76
2018-11-22T05:06:38.899Z,-76
2018-11-22T05:07:38.612Z,-78
2018-11-22T05:08:38.689Z,-76
2018-11-22T05:09:38.793Z,-76
2018-11-22T05:10:38.822Z,-76
2018-11-22T05:11:38.646Z,-78
2018-11-22T05:12:38.785Z,-76
2018-11-22T05:13:38.775Z,-76
2018-11-22T05:14:38.626Z,-78
2018-11-22T05:15:39.458Z,-75
2018-11-22T05:16:38.828Z,-78
2018-11-22T05:17:38.597Z,-78
2018-11-22T05:18:38.734Z,-77
2018-11-22T05:19:38.729Z,-78
2018-11-22T05:20:38.941Z,-76
2018-11-22T05:21:38.620Z,-78
2018-11-22T05:22:38.836Z,-78
2018-11-22T05:23:38.752Z,-77
2018-11-22T05:24:38.670Z,-78
2018-11-22T05:25:38.642Z,-78
2018-11-22T05:26:38.779Z,-77
2018-11-22T05:27:38.648Z,-78
2018-11-22T05:28:38.621Z,-78
2018-11-22T05:29:38.687Z,-77
2018-11-22T05:30:39.875Z,-77
2018-11-22T05:31:38.687Z,-78
2018-11-22T05:32:38.737Z,-77
2018-11-22T05:33:38.710Z,-76
2018-11-22T05:34:38.647Z,-77
2018-11-22T05:35:38.678Z,-76
2018-11-22T05:36:38.831Z,-77
2018-11-22T05:37:38.785Z,-77
2018-11-22T05:38:38.749Z,-77
2018-11-22T05:39:38.970Z,-77
2018-11-22T05:40:38.731Z,-76
2018-11-22T05:41:44.110Z,-78
2018-11-22T05:42:38.596Z,-78
2018-11-22T05:43:38.652Z,-77
2018-11-22T05:44:38.679Z,-78
2018-11-22T05:45:38.829Z,-76
2018-11-22T05:46:38.820Z,-77
2018-11-22T05:47:38.622Z,-78
2018-11-22T05:48:38.730Z,-76
2018-11-22T05:49:38.713Z,-77
2018-11-22T05:50:38.946Z,-78
2018-11-22T05:51:38.626Z,-78
2018-11-22T05:52:38.595Z,-78
2018-11-22T05:53:38.757Z,-77
2018-11-22T05:54:38.723Z,-77
2018-11-22T05:55:38.927Z,-75
2018-11-22T05:56:38.731Z,-78
2018-11-22T05:57:39.192Z,-75
2018-11-22T05:58:38.671Z,-77
2018-11-22T05:59:38.800Z,-76
2018-11-22T06:00:38.773Z,-77
2018-11-22T06:01:38.652Z,-77
2018-11-22T06:02:38.544Z,-77
2018-11-22T06:03:38.677Z,-76
2018-11-22T06:04:38.658Z,-76
2018-11-22T06:05:38.687Z,-76
2018-11-22T06:06:38.621Z,-76
2018-11-22T06:07:38.717Z,-77
2018-11-22T06:08:38.985Z,-75
2018-11-22T06:09:38.571Z,-77
2018-11-22T06:10:38.753Z,-76
2018-11-22T06:11:38.635Z,-77
2018-11-22T06:12:38.644Z,-78
2018-11-22T06:13:38.563Z,-78
2018-11-22T06:14:38.557Z,-76
2018-11-22T06:15:38.613Z,-77
2018-11-22T06:16:38.616Z,-78
2018-11-22T06:17:38.530Z,-78
2018-11-22T06:18:38.618Z,-78
2018-11-22T06:19:38.538Z,-78
2018-11-22T06:20:38.534Z,-77
2018-11-22T06:21:38.526Z,-78
2018-11-22T06:22:38.725Z,-77
2018-11-22T06:23:38.552Z,-78
2018-11-22T06:24:38.503Z,-77
2018-11-22T06:25:38.541Z,-78
2018-11-22T06:26:38.585Z,-77
2018-11-22T06:27:38.803Z,-77
2018-11-22T06:28:38.550Z,-78
2018-11-22T06:29:38.588Z,-78
2018-11-22T06:30:38.909Z,-76
2018-11-22T06:31:38.532Z,-78
2018-11-22T06:32:38.511Z,-77
2018-11-22T06:33:38.503Z,-77
2018-11-22T06:34:38.661Z,-76
2018-11-22T06:35:38.534Z,-77
2018-11-22T06:36:38.531Z,-77
2018-11-22T06:37:38.845Z,-76
2018-11-22T06:38:38.568Z,-77
2018-11-22T06:39:38.665Z,-76
2018-11-22T06:40:38.791Z,-78
2018-11-22T06:41:38.681Z,-77
2018-11-22T06:42:38.583Z,-78
2018-11-22T06:43:38.709Z,-77
2018-11-22T06:44:38.577Z,-76
2018-11-22T06:45:38.709Z,-77
2018-11-22T06:46:38.492Z,-77
2018-11-22T06:47:38.567Z,-78
2018-11-22T06:48:38.657Z,-77
2018-11-22T06:49:38.627Z,-78
2018-11-22T06:50:38.687Z,-76
2018-11-22T06:51:38.526Z,-78
2018-11-22T06:52:38.745Z,-76
2018-11-22T06:53:38.509Z,-78
2018-11-22T06:54:38.669Z,-78
2018-11-22T06:55:38.530Z,-77
2018-11-22T06:56:38.640Z,-78
2018-11-22T06:57:38.551Z,-78
2018-11-22T06:58:38.539Z,-78
2018-11-22T06:59:38.579Z,-77
2018-11-22T07:00:38.638Z,-78
2018-11-22T07:01:38.577Z,-77
2018-11-22T07:02:38.705Z,-77
2018-11-22T07:03:39.014Z,-77
2018-11-22T07:04:38.613Z,-78
2018-11-22T07:05:38.566Z,-77
2018-11-22T07:06:38.659Z,-77
2018-11-22T07:07:38.620Z,-76
2018-11-22T07:08:38.548Z,-76
2018-11-22T07:09:38.568Z,-78
2018-11-22T07:10:38.896Z,-76
2018-11-22T07:11:38.584Z,-77
2018-11-22T07:12:38.678Z,-76
2018-11-22T07:13:38.668Z,-78
2018-11-22T07:14:39.263Z,-76
2018-11-22T07:15:38.491Z,-78
2018-11-22T07:16:38.613Z,-76
2018-11-22T07:17:38.558Z,-78
2018-11-22T07:18:38.924Z,-79
2018-11-22T07:19:38.569Z,-78
2018-11-22T07:20:38.749Z,-79
2018-11-22T07:21:38.564Z,-79
2018-11-22T07:22:38.503Z,-79
2018-11-22T07:23:38.507Z,-79
2018-11-22T07:24:38.515Z,-79
2018-11-22T07:25:38.444Z,-79
2018-11-22T07:26:39.742Z,-79
2018-11-22T07:27:38.679Z,-80
2018-11-22T07:28:38.480Z,-79
2018-11-22T07:29:38.486Z,-79
2018-11-22T07:30:42.827Z,-79
2018-11-22T07:31:38.420Z,-79
2018-11-22T07:32:38.748Z,-79
2018-11-22T07:33:39.002Z,-79
2018-11-22T07:34:38.763Z,-79
2018-11-22T07:35:38.565Z,-79
2018-11-22T07:36:38.606Z,-79
2018-11-22T07:37:38.986Z,-79
2018-11-22T07:38:38.499Z,-79
2018-11-22T07:39:38.614Z,-79
2018-11-22T07:40:38.551Z,-79
2018-11-22T07:41:38.459Z,-79
2018-11-22T07:42:38.749Z,-79
2018-11-22T07:43:39.015Z,-79
2018-11-22T07:44:38.558Z,-79
2018-11-22T07:45:38.419Z,-79
2018-11-22T07:46:38.422Z,-79
2018-11-22T07:47:38.498Z,-79
2018-11-22T07:48:38.429Z,-79
2018-11-22T07:49:38.434Z,-79
2018-11-22T07:50:38.401Z,-79
2018-11-22T07:51:38.376Z,-79
2018-11-22T07:52:38.400Z,-79
2018-11-22T07:53:38.384Z,-79
2018-11-22T07:54:38.458Z,-79
2018-11-22T07:55:38.399Z,-79
2018-11-22T07:56:38.402Z,-79
2018-11-22T07:57:38.430Z,-79
2018-11-22T07:58:38.606Z,-78
2018-11-22T07:59:38.717Z,-79
2018-11-22T08:00:38.401Z,-78
2018-11-22T08:01:38.470Z,-79
2018-11-22T08:02:38.381Z,-79
2018-11-22T08:03:38.391Z,-79
2018-11-22T08:04:38.401Z,-79
2018-11-22T08:05:38.421Z,-79
2018-11-22T08:06:38.444Z,-79
2018-11-22T08:07:38.568Z,-79
2018-11-22T08:08:38.444Z,-79
2018-11-22T08:09:38.497Z,-79
2018-11-22T08:10:38.441Z,-78
2018-11-22T08:11:38.494Z,-79
2018-11-22T08:12:39.452Z,-79
2018-11-22T08:13:38.450Z,-79
2018-11-22T08:14:38.720Z,-79
2018-11-22T08:15:39.277Z,-79
2018-11-22T08:16:38.574Z,-79
2018-11-22T08:17:38.458Z,-79
2018-11-22T08:18:38.442Z,-79
2018-11-22T08:19:38.388Z,-79
2018-11-22T08:20:38.398Z,-79
2018-11-22T08:21:38.711Z,-79
2018-11-22T08:22:38.536Z,-79
2018-11-22T08:23:38.377Z,-79
2018-11-22T08:24:38.590Z,-79
2018-11-22T08:25:38.552Z,-79
2018-11-22T08:26:39.212Z,-79
2018-11-22T08:27:38.468Z,-79
2018-11-22T08:28:38.460Z,-79
2018-11-22T08:29:38.483Z,-78
2018-11-22T08:30:38.489Z,-77
2018-11-22T08:31:38.490Z,-77
2018-11-22T08:32:38.396Z,-78
2018-11-22T08:33:38.445Z,-78
2018-11-22T08:34:38.980Z,-76
2018-11-22T08:35:38.492Z,-78
2018-11-22T08:36:38.395Z,-79
2018-11-22T08:37:38.352Z,-78
2018-11-22T08:38:38.437Z,-78
2018-11-22T08:39:38.350Z,-78
2018-11-22T08:40:38.351Z,-78
2018-11-22T08:41:38.432Z,-78
2018-11-22T08:42:38.626Z,-78
2018-11-22T08:43:38.374Z,-78
2018-11-22T08:44:38.587Z,-76
2018-11-22T08:45:38.428Z,-78
2018-11-22T08:46:38.328Z,-78
2018-11-22T08:47:38.520Z,-76
2018-11-22T08:48:38.439Z,-78
2018-11-22T08:49:38.482Z,-76
2018-11-22T08:50:38.421Z,-78
2018-11-22T08:51:38.353Z,-79
2018-11-22T08:52:38.519Z,-79
2018-11-22T08:53:38.380Z,-79
2018-11-22T08:54:38.481Z,-79
2018-11-22T08:55:38.421Z,-79
2018-11-22T08:56:38.535Z,-79
2018-11-22T08:57:38.434Z,-79
2018-11-22T08:58:38.504Z,-79
2018-11-22T08:59:38.636Z,-79
2018-11-22T09:00:38.581Z,-79
2018-11-22T09:01:38.688Z,-79
2018-11-22T09:02:45.397Z,-79
2018-11-22T09:03:38.472Z,-78
2018-11-22T09:04:38.417Z,-79
2018-11-22T09:05:38.392Z,-78
2018-11-22T09:06:38.544Z,-78
2018-11-22T09:07:38.569Z,-78
2018-11-22T09:08:38.655Z,-78
2018-11-22T09:09:38.453Z,-79
2018-11-22T09:10:38.472Z,-79
2018-11-22T09:11:38.421Z,-79
2018-11-22T09:12:38.399Z,-79
2018-11-22T09:13:38.544Z,-78
2018-11-22T09:14:38.412Z,-78
2018-11-22T09:15:38.389Z,-79
2018-11-22T09:16:38.365Z,-78
2018-11-22T09:17:38.394Z,-78
2018-11-22T09:18:38.419Z,-78
2018-11-22T09:19:38.522Z,-78
2018-11-22T09:20:38.380Z,-79
2018-11-22T09:21:38.361Z,-79
2018-11-22T09:22:38.405Z,-79
2018-11-22T09:23:38.977Z,-79
2018-11-22T09:24:39.341Z,-79
2018-11-22T09:25:38.363Z,-79
2018-11-22T09:26:38.398Z,-79
2018-11-22T09:27:38.401Z,-79
2018-11-22T09:28:38.386Z,-79
2018-11-22T09:29:40.021Z,-79
2018-11-22T09:30:38.691Z,-79
2018-11-22T09:31:38.353Z,-79
2018-11-22T09:32:38.337Z,-79
2018-11-22T09:33:38.381Z,-79
2018-11-22T09:34:38.524Z,-79
2018-11-22T09:35:38.329Z,-78
2018-11-22T09:36:38.306Z,-77
2018-11-22T09:37:38.373Z,-78
2018-11-22T09:38:38.518Z,-78
2018-11-22T09:39:38.320Z,-78
2018-11-22T09:40:38.573Z,-77
2018-11-22T09:41:38.364Z,-77
2018-11-22T09:42:38.385Z,-78
2018-11-22T09:43:38.457Z,-78
2018-11-22T09:44:38.489Z,-78
2018-11-22T09:45:38.558Z,-77
2018-11-22T09:46:38.411Z,-78
2018-11-22T09:47:38.486Z,-77
2018-11-22T09:48:39.221Z,-78
2018-11-22T09:49:38.312Z,-78
2018-11-22T09:50:38.528Z,-76
2018-11-22T09:51:38.495Z,-77
2018-11-22T09:52:38.369Z,-78
2018-11-22T09:53:38.456Z,-77
2018-11-22T09:54:38.370Z,-77
2018-11-22T09:55:38.387Z,-77
2018-11-22T09:56:38.347Z,-76
2018-11-22T09:57:38.278Z,-77
2018-11-22T09:58:38.508Z,-75
2018-11-22T09:59:38.366Z,-76
2018-11-22T10:00:38.416Z,-77
2018-11-22T10:01:38.291Z,-77
2018-11-22T10:02:38.384Z,-77
2018-11-22T10:03:38.239Z,-77
2018-11-22T10:04:39.061Z,-77
2018-11-22T10:05:38.657Z,-77
2018-11-22T10:06:38.329Z,-77
2018-11-22T10:07:38.314Z,-77
2018-11-22T10:08:39.414Z,-77
2018-11-22T10:09:38.466Z,-76
2018-11-22T10:10:38.369Z,-76
2018-11-22T10:11:38.256Z,-78
2018-11-22T10:12:39.806Z,-77
2018-11-22T10:13:38.323Z,-78
2018-11-22T10:14:38.242Z,-76
2018-11-22T10:15:38.323Z,-77
2018-11-22T10:16:38.408Z,-75
2018-11-22T10:17:38.487Z,-75
2018-11-22T10:18:39.260Z,-77
2018-11-22T10:19:38.367Z,-76
2018-11-22T10:20:38.457Z,-74
2018-11-22T10:21:38.326Z,-76
2018-11-22T10:22:39.443Z,-75
2018-11-22T10:23:38.790Z,-76
2018-11-22T10:24:38.373Z,-77
2018-11-22T10:25:38.375Z,-76
2018-11-22T10:26:38.641Z,-76
2018-11-22T10:27:38.213Z,-76
2018-11-22T10:28:38.789Z,-74
2018-11-22T10:29:38.345Z,-77
2018-11-22T10:30:38.331Z,-76
2018-11-22T10:31:39.279Z,-77
2018-11-22T10:32:38.401Z,-77
2018-11-22T10:33:38.213Z,-77
2018-11-22T10:34:38.344Z,-77
2018-11-22T10:35:38.219Z,-78
2018-11-22T10:36:38.351Z,-75
2018-11-22T10:37:38.701Z,-76
2018-11-22T10:38:38.325Z,-76
2018-11-22T10:39:38.262Z,-77
2018-11-22T10:40:38.382Z,-75
2018-11-22T10:41:38.738Z,-73
2018-11-22T10:42:39.523Z,-76
2018-11-22T10:43:38.337Z,-76
2018-11-22T10:44:38.284Z,-76
2018-11-22T10:45:38.306Z,-75
2018-11-22T10:46:38.173Z,-75
2018-11-22T10:47:38.261Z,-75
2018-11-22T10:48:38.202Z,-74
2018-11-22T10:49:38.297Z,-76
2018-11-22T10:50:38.317Z,-74
2018-11-22T10:51:38.158Z,-76
2018-11-22T10:52:38.222Z,-76
2018-11-22T10:53:38.174Z,-76
2018-11-22T10:54:38.350Z,-75
2018-11-22T10:55:38.376Z,-74
2018-11-22T10:56:38.157Z,-76
2018-11-22T10:57:38.235Z,-74
2018-11-22T10:58:38.157Z,-75
2018-11-22T10:59:38.219Z,-75
2018-11-22T11:00:38.217Z,-74
2018-11-22T11:01:38.310Z,-74
2018-11-22T11:02:38.236Z,-76
2018-11-22T11:03:38.228Z,-74
2018-11-22T11:04:38.214Z,-76
2018-11-22T11:05:38.434Z,-75
2018-11-22T11:06:38.214Z,-76
2018-11-22T11:07:38.219Z,-76
2018-11-22T11:08:38.242Z,-73
2018-11-22T11:09:38.194Z,-77
2018-11-22T11:10:38.252Z,-76
2018-11-22T11:11:38.293Z,-73
2018-11-22T11:12:38.241Z,-75
2018-11-22T11:13:38.281Z,-74
2018-11-22T11:14:38.128Z,-76
2018-11-22T11:15:38.170Z,-76
2018-11-22T11:16:38.371Z,-73
2018-11-22T11:17:38.523Z,-74
2018-11-22T11:18:38.267Z,-75
2018-11-22T11:19:38.288Z,-74
2018-11-22T11:20:38.320Z,-73
2018-11-22T11:21:38.401Z,-74
2018-11-22T11:22:38.232Z,-77
2018-11-22T11:23:38.592Z,-76
2018-11-22T11:24:43.515Z,-76
2018-11-22T11:25:38.278Z,-74
2018-11-22T11:26:38.419Z,-73
2018-11-22T11:27:38.311Z,-75
2018-11-22T11:28:38.240Z,-76
2018-11-22T11:29:38.516Z,-73
2018-11-22T11:30:39.270Z,-77
2018-11-22T11:31:38.227Z,-77
2018-11-22T11:32:38.473Z,-75
2018-11-22T11:33:38.191Z,-78
2018-11-22T11:34:38.503Z,-74
2018-11-22T11:35:38.221Z,-77
2018-11-22T11:36:38.252Z,-76
2018-11-22T11:37:38.292Z,-77
2018-11-22T11:38:38.108Z,-77
2018-11-22T11:39:38.337Z,-75
2018-11-22T11:40:38.227Z,-78
2018-11-22T11:41:38.502Z,-77
2018-11-22T11:42:38.316Z,-76
2018-11-22T11:43:38.313Z,-77
2018-11-22T11:44:38.454Z,-76
2018-11-22T11:45:38.224Z,-77
2018-11-22T11:46:38.409Z,-76
2018-11-22T11:47:38.266Z,-77
2018-11-22T11:48:38.437Z,-77
2018-11-22T11:49:38.237Z,-77
2018-11-22T11:50:38.241Z,-77
2018-11-22T11:51:38.262Z,-77
2018-11-22T11:52:38.630Z,-76
2018-11-22T11:53:42.208Z,-80
2018-11-22T11:54:38.400Z,-76
2018-11-22T11:55:38.262Z,-77
2018-11-22T11:56:38.115Z,-79
2018-11-22T11:57:38.268Z,-77
2018-11-22T11:58:38.228Z,-77
2018-11-22T11:59:38.418Z,-77
2018-11-22T12:00:38.365Z,-77
2018-11-22T12:01:38.167Z,-79
2018-11-22T12:02:38.190Z,-79
2018-11-22T12:03:38.330Z,-77
2018-11-22T12:04:38.440Z,-76
2018-11-22T12:05:38.329Z,-77
2018-11-22T12:06:38.160Z,-79
2018-11-22T12:07:38.338Z,-78
2018-11-22T12:08:38.280Z,-76
2018-11-22T12:09:38.213Z,-78
2018-11-22T12:10:38.128Z,-78
2018-11-22T12:11:38.435Z,-77
2018-11-22T12:12:38.105Z,-79
2018-11-22T12:13:38.745Z,-77
2018-11-22T12:14:38.186Z,-77
2018-11-22T12:15:38.192Z,-78
2018-11-22T12:16:38.078Z,-79
2018-11-22T12:17:38.245Z,-77
2018-11-22T12:18:38.077Z,-79
2018-11-22T12:19:38.048Z,-79
2018-11-22T12:20:38.054Z,-79
2018-11-22T12:21:38.214Z,-78
2018-11-22T12:22:38.144Z,-79
2018-11-22T12:23:38.096Z,-80
2018-11-22T12:24:38.231Z,-80
2018-11-22T12:25:38.134Z,-85
2018-11-22T12:26:38.061Z,-79
2018-11-22T12:27:38.348Z,-77
2018-11-22T12:28:38.062Z,-79
2018-11-22T12:29:38.078Z,-79
2018-11-22T12:30:38.109Z,-79
2018-11-22T12:31:38.093Z,-79
2018-11-22T12:32:38.292Z,-78
2018-11-22T12:33:38.242Z,-79
2018-11-22T12:34:38.050Z,-79
2018-11-22T12:35:38.205Z,-79
2018-11-22T12:36:38.200Z,-79
2018-11-22T12:37:43.688Z,-78
2018-11-22T12:38:38.405Z,-76
2018-11-22T12:39:38.221Z,-79
2018-11-22T12:40:38.170Z,-79
2018-11-22T12:41:38.099Z,-79
2018-11-22T12:42:38.187Z,-79
2018-11-22T12:43:38.094Z,-79
2018-11-22T12:44:38.067Z,-79
2018-11-22T12:45:38.223Z,-78
2018-11-22T12:46:38.423Z,-77
2018-11-22T12:47:38.374Z,-77
2018-11-22T12:48:38.050Z,-79
2018-11-22T12:49:38.060Z,-79
2018-11-22T12:50:38.043Z,-79
2018-11-22T12:51:38.144Z,-79
2018-11-22T12:52:38.132Z,-80
2018-11-22T12:53:38.547Z,-78
2018-11-22T12:54:38.463Z,-76
2018-11-22T12:55:38.020Z,-79
2018-11-22T12:56:38.235Z,-77
2018-11-22T12:57:38.165Z,-79
2018-11-22T12:58:38.279Z,-77
2018-11-22T12:59:38.225Z,-77
2018-11-22T13:00:38.428Z,-76
2018-11-22T13:01:38.062Z,-79
2018-11-22T13:02:38.055Z,-78
2018-11-22T13:03:38.216Z,-78
2018-11-22T13:04:38.034Z,-78
2018-11-22T13:05:38.056Z,-79
2018-11-22T13:06:38.009Z,-79
2018-11-22T13:07:38.367Z,-76
2018-11-22T13:08:38.241Z,-76
2018-11-22T13:09:38.041Z,-79
2018-11-22T13:10:38.379Z,-77
2018-11-22T13:11:38.091Z,-78
2018-11-22T13:12:38.034Z,-79
2018-11-22T13:13:38.253Z,-76
2018-11-22T13:14:38.312Z,-76
2018-11-22T13:15:38.139Z,-79
2018-11-22T13:16:38.163Z,-79
2018-11-22T13:17:38.034Z,-79
2018-11-22T13:18:38.042Z,-79
2018-11-22T13:19:38.526Z,-77
2018-11-22T13:20:38.419Z,-76
2018-11-22T13:21:38.021Z,-79
2018-11-22T13:22:38.001Z,-79
2018-11-22T13:23:38.082Z,-78
2018-11-22T13:24:38.193Z,-77
2018-11-22T13:25:38.382Z,-76
2018-11-22T13:26:38.402Z,-76
2018-11-22T13:27:38.030Z,-79
2018-11-22T13:28:38.221Z,-77
2018-11-22T13:29:38.319Z,-76
2018-11-22T13:30:38.245Z,-77
2018-11-22T13:31:38.100Z,-78
2018-11-22T13:32:37.987Z,-79
2018-11-22T13:33:38.008Z,-78
2018-11-22T13:34:38.068Z,-77
2018-11-22T13:35:38.131Z,-77
2018-11-22T13:36:38.788Z,-75
2018-11-22T13:37:38.023Z,-78
2018-11-22T13:38:38.109Z,-79
2018-11-22T13:39:38.069Z,-78
2018-11-22T13:40:38.353Z,-76
2018-11-22T13:41:38.013Z,-79
2018-11-22T13:42:37.998Z,-78
2018-11-22T13:43:38.116Z,-78
2018-11-22T13:44:38.324Z,-77
2018-11-22T13:45:38.007Z,-79
2018-11-22T13:46:38.260Z,-77